Time;durP1;ratioP1;P1;durP2;ratioP2;P2;SDS_P1;SDS_P2;PMS_P1;PMS_P2;Temp;Humidity;BMP_temperature;BMP_pressure;BME280_temperature;BME280_humidity;BME280_pressure;Samples;Min_cycle;Max_cycle;Signal;HPM_P1;HPM_P2
2022/01/06 00:01:57;;;;;;;31.05;11.25;;;0.40;99.90;;;;;;4998655;28;20037;-83
2022/01/06 00:04:22;;;;;;;40.75;12.18;;;0.40;99.90;;;;;;4998584;28;20024;-83
2022/01/06 00:06:48;;;;;;;34.20;12.18;;;0.40;99.90;;;;;;4998406;28;20125;-83
2022/01/06 00:09:17;;;;;;;48.10;14.18;;;0.40;99.90;;;;;;4982908;28;20045;-83
2022/01/06 00:11:44;;;;;;;43.70;14.20;;;0.40;99.90;;;;;;4982357;28;20033;-83
2022/01/06 00:14:18;;;;;;;31.52;11.95;;;0.30;99.90;;;;;;4998119;28;20026;-83
2022/01/06 00:24:47;;;;;;;40.78;11.90;;;0.40;99.90;;;;;;4998345;28;20033;-83
2022/01/06 00:27:14;;;;;;;37.70;11.38;;;0.40;99.90;;;;;;4982159;28;20034;-84
2022/01/06 00:29:40;;;;;;;39.08;12.77;;;0.40;99.90;;;;;;4983452;28;20395;-82
2022/01/06 00:32:06;;;;;;;32.67;12.88;;;0.40;99.90;;;;;;5001107;28;20034;-83
2022/01/06 00:34:32;;;;;;;46.00;13.25;;;0.40;99.90;;;;;;5019180;28;20478;-82
2022/01/06 00:36:58;;;;;;;32.42;11.80;;;0.40;99.90;;;;;;5001239;28;20036;-83
2022/01/06 00:39:27;;;;;;;38.95;12.63;;;0.40;99.90;;;;;;4984906;28;20359;-83
2022/01/06 00:41:58;;;;;;;43.08;13.65;;;0.40;99.90;;;;;;5000190;28;20041;-84
2022/01/06 00:44:24;;;;;;;32.78;12.20;;;0.40;99.90;;;;;;4984130;28;20046;-82
2022/01/06 00:46:51;;;;;;;41.17;13.27;;;0.40;99.90;;;;;;4983435;28;20072;-82
2022/01/06 00:49:17;;;;;;;42.30;17.00;;;0.30;99.90;;;;;;5001227;28;20041;-83
2022/01/06 00:51:43;;;;;;;46.47;15.30;;;0.40;99.90;;;;;;4982864;28;20053;-82
2022/01/06 00:54:10;;;;;;;39.05;13.77;;;0.40;99.90;;;;;;4982404;28;20096;-82
2022/01/06 00:56:36;;;;;;;35.95;14.00;;;0.40;99.90;;;;;;4982053;28;20061;-83
2022/01/06 00:59:07;;;;;;;46.70;16.25;;;0.40;99.90;;;;;;4984708;28;20057;-83
2022/01/06 01:01:33;;;;;;;36.80;14.98;;;0.40;99.90;;;;;;4982695;28;20045;-84
2022/01/06 01:03:59;;;;;;;36.00;14.45;;;0.40;99.90;;;;;;4999671;28;20363;-83
2022/01/06 01:06:25;;;;;;;39.00;14.13;;;0.40;99.90;;;;;;5003421;28;20045;-84
2022/01/06 01:08:51;;;;;;;46.30;14.07;;;0.40;99.90;;;;;;4983342;28;20034;-84
2022/01/06 01:11:17;;;;;;;50.63;16.50;;;0.50;99.90;;;;;;4988927;28;20068;-83
2022/01/06 01:13:54;;;;;;;40.10;14.43;;;0.40;99.90;;;;;;5001365;28;20042;-84
2022/01/06 01:16:23;;;;;;;33.78;13.73;;;0.40;99.90;;;;;;4987315;28;20038;-84
2022/01/06 01:18:49;;;;;;;47.38;15.13;;;0.40;99.90;;;;;;4982947;28;20029;-84
2022/01/06 01:21:17;;;;;;;52.30;16.45;;;0.50;99.90;;;;;;4982961;28;20592;-82
2022/01/06 01:23:42;;;;;;;46.20;14.73;;;0.40;99.90;;;;;;4998851;28;20386;-83
2022/01/06 01:26:08;;;;;;;41.97;15.38;;;0.50;99.90;;;;;;4983165;28;20030;-83
2022/01/06 01:28:43;;;;;;;39.95;14.38;;;0.40;99.90;;;;;;4999098;28;20026;-82
2022/01/06 01:33:45;;;;;;;45.08;16.92;;;0.40;99.90;;;;;;4999351;28;20041;-82
2022/01/06 01:36:12;;;;;;;48.80;17.38;;;0.40;99.90;;;;;;4982600;28;20462;-82
2022/01/06 01:38:38;;;;;;;40.05;15.73;;;0.40;99.90;;;;;;4982836;28;20038;-82
2022/01/06 01:41:05;;;;;;;44.50;17.42;;;0.40;99.90;;;;;;4982460;28;20136;-82
2022/01/06 01:43:31;;;;;;;38.85;16.50;;;0.40;99.90;;;;;;4998982;28;20026;-83
2022/01/06 01:45:59;;;;;;;43.92;17.95;;;0.40;99.90;;;;;;4998620;28;20059;-82
2022/01/06 01:48:32;;;;;;;41.08;17.63;;;0.40;99.90;;;;;;4999015;28;20068;-82
2022/01/06 01:50:58;;;;;;;48.47;17.83;;;0.30;99.90;;;;;;4998102;28;20128;-82
2022/01/06 01:53:24;;;;;;;51.35;18.58;;;0.30;99.90;;;;;;4981873;28;20076;-83
2022/01/06 01:55:50;;;;;;;50.30;21.70;;;0.30;99.90;;;;;;4981547;28;20030;-82
2022/01/06 01:58:16;;;;;;;51.58;18.15;;;0.30;99.90;;;;;;4997843;28;20393;-83
2022/01/06 02:00:41;;;;;;;41.13;17.58;;;0.30;99.90;;;;;;4981467;28;20033;-83
2022/01/06 02:03:07;;;;;;;48.10;18.63;;;0.30;99.90;;;;;;4981365;28;20798;-83
2022/01/06 02:05:33;;;;;;;52.22;19.88;;;0.20;99.90;;;;;;4981366;28;20076;-83
2022/01/06 02:07:59;;;;;;;47.40;18.75;;;0.30;99.90;;;;;;4981644;28;20034;-83
2022/01/06 02:10:27;;;;;;;50.30;17.30;;;0.30;99.90;;;;;;4981538;28;20050;-83
2022/01/06 02:12:55;;;;;;;51.33;18.88;;;0.20;99.90;;;;;;4997668;28;20065;-83
2022/01/06 02:15:21;;;;;;;51.42;18.63;;;0.30;99.90;;;;;;4997020;28;20029;-83
2022/01/06 02:17:49;;;;;;;52.35;19.42;;;0.20;99.90;;;;;;4980790;28;20061;-84
2022/01/06 02:20:17;;;;;;;47.63;18.98;;;0.20;99.90;;;;;;4980831;28;20026;-83
2022/01/06 02:22:43;;;;;;;112.45;24.15;;;0.20;99.90;;;;;;4980655;28;20035;-84
2022/01/06 02:25:13;;;;;;;150.68;24.52;;;0.20;99.90;;;;;;4980492;28;20034;-83
2022/01/06 02:27:39;;;;;;;591.55;59.22;;;0.20;99.90;;;;;;4996836;28;20126;-84
2022/01/06 02:30:07;;;;;;;56.40;19.90;;;0.20;99.90;;;;;;4996632;28;20049;-84
2022/01/06 02:32:32;;;;;;;60.72;19.95;;;0.20;99.90;;;;;;4980423;28;20064;-84
2022/01/06 02:35:03;;;;;;;269.27;32.22;;;0.20;99.90;;;;;;4980171;28;20038;-84
2022/01/06 02:37:29;;;;;;;775.53;63.53;;;0.30;99.90;;;;;;4981242;28;20030;-84
2022/01/06 02:39:54;;;;;;;432.33;43.88;;;0.30;99.90;;;;;;4980849;28;20281;-84
2022/01/06 02:42:20;;;;;;;451.40;42.45;;;0.20;99.90;;;;;;4996845;28;20171;-83
2022/01/06 02:44:46;;;;;;;195.85;31.80;;;0.30;99.90;;;;;;4996667;28;20104;-83
2022/01/06 02:47:11;;;;;;;194.38;31.67;;;0.30;99.90;;;;;;4980435;28;20032;-83
2022/01/06 02:49:37;;;;;;;664.55;53.47;;;0.30;99.90;;;;;;5014208;28;20045;-84
2022/01/06 02:52:03;;;;;;;302.90;36.80;;;0.30;99.90;;;;;;4980468;28;20541;-83
2022/01/06 02:54:29;;;;;;;555.30;52.38;;;0.30;99.90;;;;;;4980214;28;20473;-83
2022/01/06 02:56:55;;;;;;;398.23;48.63;;;0.30;99.90;;;;;;4980047;28;20032;-84
2022/01/06 02:59:20;;;;;;;588.90;99.28;;;0.30;99.90;;;;;;4996442;28;20053;-83
2022/01/06 03:01:46;;;;;;;137.32;32.08;;;0.30;99.90;;;;;;4980186;28;20065;-83
2022/01/06 03:04:12;;;;;;;79.55;25.20;;;0.30;99.90;;;;;;4980159;28;20108;-83
2022/01/06 03:06:42;;;;;;;241.15;35.47;;;0.30;99.90;;;;;;4996435;28;20030;-83
2022/01/06 03:09:08;;;;;;;81.72;24.17;;;0.30;99.90;;;;;;4980051;28;20050;-84
2022/01/06 03:11:40;;;;;;;84.40;26.33;;;0.30;99.90;;;;;;4996194;28;20133;-83
2022/01/06 03:14:05;;;;;;;;;;;0.30;99.90;;;;;;4996735;28;20450;-83
2022/01/06 03:16:31;;;;;;;76.57;24.90;;;0.40;99.90;;;;;;5012268;28;19956;-83
2022/01/06 03:18:56;;;;;;;128.70;31.17;;;0.40;99.90;;;;;;4996193;28;20026;-83
2022/01/06 03:21:22;;;;;;;508.63;49.00;;;0.40;99.90;;;;;;4995827;28;20040;-83
2022/01/06 03:23:48;;;;;;;394.67;44.05;;;0.30;99.90;;;;;;4996020;28;20496;-83
2022/01/06 03:26:13;;;;;;;132.60;29.23;;;0.40;99.90;;;;;;4979951;28;20385;-83
2022/01/06 03:28:39;;;;;;;120.43;26.38;;;0.40;99.90;;;;;;4995996;28;20038;-83
2022/01/06 03:31:05;;;;;;;66.85;23.45;;;0.40;99.90;;;;;;4979638;28;20034;-83
2022/01/06 03:33:31;;;;;;;70.88;25.27;;;0.40;99.90;;;;;;4979635;28;20167;-83
2022/01/06 03:35:57;;;;;;;94.18;26.48;;;0.40;99.90;;;;;;4995811;28;20116;-83
2022/01/06 03:38:22;;;;;;;97.93;28.00;;;0.40;99.90;;;;;;4996168;28;20481;-83
2022/01/06 03:40:48;;;;;;;88.38;27.20;;;0.40;99.90;;;;;;4979824;28;20477;-83
2022/01/06 03:43:14;;;;;;;82.13;26.15;;;0.50;99.90;;;;;;4979593;28;20044;-82
2022/01/06 03:45:40;;;;;;;92.60;27.05;;;0.50;99.90;;;;;;4979775;28;20121;-83
2022/01/06 03:48:06;;;;;;;87.13;26.58;;;0.50;99.90;;;;;;4979713;28;20041;-83
2022/01/06 03:50:32;;;;;;;93.32;29.05;;;0.50;99.90;;;;;;4980158;28;20034;-83
2022/01/06 03:52:57;;;;;;;77.22;26.92;;;0.50;99.90;;;;;;4996391;28;20030;-83
2022/01/06 03:55:23;;;;;;;85.15;26.17;;;0.50;99.90;;;;;;5013277;28;20061;-83
2022/01/06 03:57:49;;;;;;;76.78;27.83;;;0.50;99.90;;;;;;4996111;28;20034;-83
2022/01/06 04:00:18;;;;;;;76.60;27.33;;;0.60;99.90;;;;;;4979781;28;20037;-83
2022/01/06 04:02:44;;;;;;;112.40;38.92;;;0.50;99.90;;;;;;4979797;28;20061;-83
2022/01/06 04:05:11;;;;;;;388.67;105.20;;;0.50;99.90;;;;;;4998309;28;20084;-83
2022/01/06 04:07:37;;;;;;;127.05;35.70;;;0.50;99.90;;;;;;4999892;28;20104;-82
2022/01/06 04:10:04;;;;;;;91.10;28.45;;;0.50;99.90;;;;;;4983647;28;20030;-83
2022/01/06 04:12:33;;;;;;;78.35;25.95;;;0.50;99.90;;;;;;5017657;28;20424;-83
2022/01/06 04:14:59;;;;;;;105.53;26.73;;;0.50;99.90;;;;;;4983251;28;20104;-82
2022/01/06 04:17:25;;;;;;;75.60;28.85;;;0.60;99.90;;;;;;4999451;28;20533;-82
2022/01/06 04:19:50;;;;;;;85.07;27.65;;;0.60;99.90;;;;;;4999502;28;20041;-83
2022/01/06 04:22:16;;;;;;;88.07;26.85;;;0.60;99.90;;;;;;4999607;28;20026;-82
2022/01/06 04:24:42;;;;;;;92.10;28.65;;;0.60;99.90;;;;;;4983068;28;20081;-82
2022/01/06 04:27:08;;;;;;;80.75;27.02;;;0.70;99.90;;;;;;4983088;28;20041;-82
2022/01/06 04:29:33;;;;;;;88.50;27.50;;;0.60;99.90;;;;;;4999741;28;20026;-83
2022/01/06 04:31:59;;;;;;;96.57;28.15;;;0.60;99.90;;;;;;4982870;28;20036;-83
2022/01/06 04:34:25;;;;;;;94.68;27.95;;;0.60;99.90;;;;;;4982798;28;20116;-83
2022/01/06 04:36:54;;;;;;;97.70;29.27;;;0.60;99.90;;;;;;4982930;28;20033;-83
2022/01/06 04:39:20;;;;;;;91.88;26.73;;;0.70;99.90;;;;;;4983041;28;20036;-83
2022/01/06 04:41:46;;;;;;;81.35;26.40;;;0.60;99.90;;;;;;4982325;28;20030;-82
2022/01/06 04:44:11;;;;;;;85.90;28.30;;;0.70;99.90;;;;;;4999097;28;20030;-83
2022/01/06 04:46:37;;;;;;;109.22;29.63;;;0.70;99.90;;;;;;4998947;28;20727;-83
2022/01/06 04:49:04;;;;;;;80.43;27.75;;;0.60;99.90;;;;;;4982883;28;20135;-82
2022/01/06 04:51:30;;;;;;;91.38;27.48;;;0.70;99.90;;;;;;4998896;28;20477;-82
2022/01/06 04:53:57;;;;;;;83.60;28.33;;;0.70;99.90;;;;;;4982355;28;20034;-82
2022/01/06 04:56:22;;;;;;;102.05;28.98;;;0.70;99.90;;;;;;4982722;28;20029;-82
2022/01/06 04:58:48;;;;;;;82.20;26.98;;;0.60;99.90;;;;;;4998672;28;20505;-82
2022/01/06 05:01:15;;;;;;;83.28;25.10;;;0.60;99.90;;;;;;5016445;28;20072;-82
2022/01/06 05:03:41;;;;;;;73.80;23.13;;;0.60;99.90;;;;;;5016072;28;20478;-82
2022/01/06 05:06:07;;;;;;;72.32;21.92;;;0.50;99.90;;;;;;4998872;28;20092;-82
2022/01/06 05:08:33;;;;;;;64.80;21.83;;;0.40;99.90;;;;;;4998549;28;20060;-82
2022/01/06 05:10:58;;;;;;;79.35;22.17;;;0.40;99.90;;;;;;4982390;28;20033;-82
2022/01/06 05:13:24;;;;;;;95.13;27.63;;;0.30;99.90;;;;;;4998500;28;20036;-82
2022/01/06 05:15:50;;;;;;;73.28;23.30;;;0.30;99.90;;;;;;4997125;28;20034;-82
2022/01/06 05:18:16;;;;;;;81.55;23.77;;;0.30;99.90;;;;;;4998460;28;20034;-82
2022/01/06 05:20:42;;;;;;;79.30;23.85;;;0.30;99.90;;;;;;4982454;28;20542;-83
2022/01/06 05:23:10;;;;;;;86.32;21.88;;;0.30;99.90;;;;;;4981933;28;20065;-82
2022/01/06 05:25:36;;;;;;;76.75;22.05;;;0.30;99.90;;;;;;4982075;28;20034;-82
2022/01/06 05:28:02;;;;;;;63.70;21.17;;;0.40;99.90;;;;;;5015463;28;20034;-82
2022/01/06 05:30:28;;;;;;;71.00;22.65;;;0.30;99.90;;;;;;4981741;28;20045;-82
2022/01/06 05:32:53;;;;;;;63.03;22.00;;;0.30;99.90;;;;;;4981565;28;20549;-82
2022/01/06 05:35:19;;;;;;;75.53;22.65;;;0.40;99.90;;;;;;4981091;28;20037;-82
2022/01/06 05:37:45;;;;;;;67.85;22.40;;;0.40;99.90;;;;;;4997827;28;20727;-82
2022/01/06 05:40:12;;;;;;;80.03;21.85;;;0.40;99.90;;;;;;4998046;28;20416;-82
2022/01/06 05:42:38;;;;;;;56.75;19.13;;;0.40;99.90;;;;;;4997739;28;20128;-82
2022/01/06 05:45:04;;;;;;;65.35;20.33;;;0.40;99.90;;;;;;4997938;28;20169;-82
2022/01/06 05:47:30;;;;;;;63.58;19.00;;;0.40;99.90;;;;;;5015366;28;20906;-82
2022/01/06 05:49:56;;;;;;;63.20;17.95;;;0.30;99.90;;;;;;5015546;28;20065;-82
2022/01/06 05:52:21;;;;;;;66.35;19.98;;;0.40;99.90;;;;;;4998077;28;20109;-82
2022/01/06 05:54:47;;;;;;;71.57;19.25;;;0.40;99.90;;;;;;4997252;28;20037;-82
2022/01/06 05:57:15;;;;;;;49.15;17.67;;;0.40;99.90;;;;;;4981579;28;20038;-82
2022/01/06 05:59:41;;;;;;;70.35;18.63;;;0.40;99.90;;;;;;4997746;28;20034;-82
2022/01/06 06:02:08;;;;;;;55.08;16.77;;;0.40;99.90;;;;;;4997460;28;20169;-82
2022/01/06 06:04:33;;;;;;;70.88;17.95;;;0.50;99.90;;;;;;4981292;28;20034;-82
2022/01/06 06:06:59;;;;;;;61.15;17.08;;;0.40;99.90;;;;;;4997540;28;20034;-83
2022/01/06 06:09:25;;;;;;;58.70;17.02;;;0.50;99.90;;;;;;4981079;28;20041;-83
2022/01/06 06:11:50;;;;;;;73.85;18.13;;;0.50;99.90;;;;;;4981014;28;20061;-83
2022/01/06 06:14:16;;;;;;;61.50;18.95;;;0.50;99.90;;;;;;4997274;28;20147;-82
2022/01/06 06:16:48;;;;;;;63.75;18.77;;;0.50;99.90;;;;;;5014755;28;20465;-82
2022/01/06 06:19:14;;;;;;;54.80;17.38;;;0.50;99.90;;;;;;4981170;28;20033;-83
2022/01/06 06:21:40;;;;;;;57.08;19.95;;;0.50;99.90;;;;;;4980386;28;20022;-82
2022/01/06 06:24:06;;;;;;;67.10;19.00;;;0.50;99.90;;;;;;4980442;28;20026;-82
2022/01/06 06:26:32;;;;;;;58.03;17.75;;;0.50;99.90;;;;;;4996640;28;20467;-83
2022/01/06 06:28:58;;;;;;;55.15;18.33;;;0.50;99.90;;;;;;4997053;28;20033;-82
2022/01/06 06:31:24;;;;;;;54.53;17.75;;;0.50;99.90;;;;;;5014448;28;20367;-82
2022/01/06 06:33:49;;;;;;;68.25;17.85;;;0.60;99.90;;;;;;4980524;28;20549;-83
2022/01/06 06:36:15;;;;;;;65.28;18.63;;;0.50;99.90;;;;;;4996506;28;20033;-82
2022/01/06 06:38:41;;;;;;;61.47;19.20;;;0.50;99.90;;;;;;4980523;28;20394;-82
2022/01/06 06:41:07;;;;;;;62.35;18.83;;;0.60;99.90;;;;;;4980527;28;20033;-82
2022/01/06 06:43:32;;;;;;;76.95;19.38;;;0.60;99.90;;;;;;4999160;28;20038;-82
2022/01/06 06:45:58;;;;;;;70.30;19.08;;;0.60;99.90;;;;;;4982573;28;20042;-82
2022/01/06 06:48:52;;;;;;;61.63;19.55;;;0.50;99.90;;;;;;4980461;28;20568;-82
2022/01/06 06:51:18;;;;;;;60.60;17.70;;;0.50;99.90;;;;;;4996589;28;20034;-82
2022/01/06 06:53:44;;;;;;;70.90;19.35;;;0.50;99.90;;;;;;4980482;28;20486;-83
2022/01/06 06:56:10;;;;;;;68.78;18.95;;;0.50;99.90;;;;;;4982138;28;20034;-82
2022/01/06 06:58:36;;;;;;;68.53;17.58;;;0.50;99.90;;;;;;4982573;28;20133;-83
2022/01/06 07:01:03;;;;;;;80.00;19.45;;;0.50;99.90;;;;;;4982483;28;20053;-82
2022/01/06 07:03:29;;;;;;;66.47;20.92;;;0.40;99.90;;;;;;4980111;28;20080;-82
2022/01/06 07:05:55;;;;;;;66.55;20.35;;;0.30;99.90;;;;;;4996518;28;20481;-82
2022/01/06 07:08:21;;;;;;;59.80;19.00;;;0.30;99.90;;;;;;5013913;28;20022;-82
2022/01/06 07:10:47;;;;;;;58.55;17.52;;;0.20;99.90;;;;;;4996919;28;20552;-82
2022/01/06 07:13:16;;;;;;;72.80;18.85;;;0.20;99.90;;;;;;4996298;28;20033;-82
2022/01/06 07:15:43;;;;;;;75.38;19.38;;;0.10;99.90;;;;;;4982171;28;20402;-82
2022/01/06 07:18:10;;;;;;;61.75;18.00;;;0.10;99.90;;;;;;4979973;28;20037;-82
2022/01/06 07:20:36;;;;;;;64.53;17.83;;;0.10;99.90;;;;;;5013729;28;20061;-84
2022/01/06 07:23:02;;;;;;;64.30;18.08;;;0.10;99.90;;;;;;4996178;28;20116;-84
2022/01/06 07:25:27;;;;;;;65.38;16.90;;;0.10;99.90;;;;;;4980372;28;20060;-84
2022/01/06 07:27:53;;;;;;;64.00;18.05;;;0.10;99.90;;;;;;4998527;28;20653;-84
2022/01/06 07:30:19;;;;;;;67.55;17.20;;;0.10;99.90;;;;;;4996564;28;20076;-84
2022/01/06 07:32:48;;;;;;;71.22;16.92;;;0.10;99.90;;;;;;4979987;28;20030;-84
2022/01/06 07:35:15;;;;;;;58.22;17.08;;;0.10;99.90;;;;;;4979927;28;20030;-84
2022/01/06 07:38:06;;;;;;;63.75;17.13;;;0.00;99.90;;;;;;4982162;28;20049;-84
2022/01/06 07:40:32;;;;;;;69.30;19.27;;;0.00;99.90;;;;;;5013604;28;20045;-85
2022/01/06 07:42:57;;;;;;;65.88;18.25;;;0.10;99.90;;;;;;4982527;28;20268;-84
2022/01/06 07:45:23;;;;;;;63.53;18.55;;;0.20;99.90;;;;;;4995921;28;20033;-84
2022/01/06 07:47:57;;;;;;;73.38;20.13;;;0.20;99.90;;;;;;4979897;28;20113;-84
2022/01/06 07:50:30;;;;;;;65.07;17.48;;;0.30;99.90;;;;;;5013543;28;20030;-84
2022/01/06 07:52:57;;;;;;;81.18;23.35;;;0.30;99.90;;;;;;4980028;28;20123;-83
2022/01/06 07:55:22;;;;;;;80.35;24.48;;;0.40;99.90;;;;;;4978646;28;20029;-84
2022/01/06 07:57:50;;;;;;;88.53;30.90;;;0.30;99.90;;;;;;4979085;28;20034;-83
2022/01/06 08:00:17;;;;;;;79.30;22.70;;;0.30;99.90;;;;;;4995739;28;20645;-84
2022/01/06 08:02:44;;;;;;;131.73;42.40;;;0.30;99.90;;;;;;4979603;28;20057;-84
2022/01/06 08:05:12;;;;;;;215.55;67.20;;;0.20;99.90;;;;;;4979451;28;20034;-83
2022/01/06 08:07:38;;;;;;;64.32;20.30;;;0.20;99.90;;;;;;4995967;28;20049;-84
2022/01/06 08:10:05;;;;;;;74.07;25.67;;;0.10;99.90;;;;;;4996131;28;20041;-84
2022/01/06 08:12:30;;;;;;;74.22;20.80;;;0.10;99.90;;;;;;4980056;28;20397;-85
2022/01/06 08:14:56;;;;;;;79.53;26.83;;;0.10;99.90;;;;;;4995908;28;20041;-85
2022/01/06 08:17:22;;;;;;;99.00;25.27;;;0.10;99.90;;;;;;4980153;28;20125;-85
2022/01/06 08:19:47;;;;;;;76.40;25.80;;;0.10;99.90;;;;;;4996495;28;20107;-84
2022/01/06 08:22:14;;;;;;;103.30;26.70;;;0.10;99.90;;;;;;4979740;28;20033;-84
2022/01/06 08:24:40;;;;;;;71.80;20.40;;;0.10;99.90;;;;;;4979198;28;20080;-85
2022/01/06 08:27:08;;;;;;;75.10;22.50;;;0.00;99.90;;;;;;4995951;28;20394;-84
2022/01/06 08:29:37;;;;;;;115.72;34.78;;;0.10;99.90;;;;;;4979575;28;20026;-84
2022/01/06 08:32:04;;;;;;;518.72;166.90;;;0.20;99.90;;;;;;4996098;28;20033;-85
2022/01/06 08:34:30;;;;;;;261.17;70.88;;;0.20;99.90;;;;;;4979488;28;20030;-84
2022/01/06 08:36:55;;;;;;;104.60;27.30;;;0.30;99.90;;;;;;4978711;28;20034;-85
2022/01/06 08:39:22;;;;;;;106.15;26.50;;;0.30;99.90;;;;;;5013193;28;20025;-84
2022/01/06 08:41:49;;;;;;;94.75;25.35;;;0.20;99.90;;;;;;4995523;28;20041;-85
2022/01/06 08:44:15;;;;;;;91.95;25.38;;;0.20;99.90;;;;;;4995566;28;20478;-85
2022/01/06 08:46:41;;;;;;;116.20;34.30;;;0.30;99.90;;;;;;4978784;28;20034;-84
2022/01/06 08:49:11;;;;;;;92.68;32.63;;;0.40;99.90;;;;;;4979014;28;20050;-85
2022/01/06 08:51:38;;;;;;;91.40;25.27;;;0.40;99.90;;;;;;4998339;28;20033;-84
2022/01/06 08:54:05;;;;;;;89.18;25.80;;;0.50;99.90;;;;;;4982747;28;20041;-84
2022/01/06 08:56:30;;;;;;;96.35;31.65;;;0.60;99.90;;;;;;4982682;28;20460;-85
2022/01/06 08:58:56;;;;;;;98.97;31.45;;;0.70;99.90;;;;;;4998817;28;20054;-84
2022/01/06 09:01:22;;;;;;;91.43;32.28;;;0.80;99.90;;;;;;4998519;28;20481;-85
2022/01/06 09:03:47;;;;;;;102.57;38.20;;;0.80;99.90;;;;;;4982854;28;20038;-84
2022/01/06 09:06:28;;;;;;;114.78;39.75;;;0.90;99.90;;;;;;5016647;28;20441;-84
2022/01/06 09:08:54;;;;;;;91.95;31.20;;;0.90;99.90;;;;;;4999453;28;20040;-85
2022/01/06 09:11:20;;;;;;;93.30;27.55;;;0.90;99.90;;;;;;4999192;28;20128;-84
2022/01/06 09:13:46;;;;;;;90.55;27.30;;;0.90;99.90;;;;;;4982477;28;20056;-84
2022/01/06 09:16:12;;;;;;;80.38;28.75;;;0.80;99.90;;;;;;4982327;28;20033;-84
2022/01/06 09:18:39;;;;;;;96.35;29.85;;;0.90;99.90;;;;;;4982796;28;20030;-84
2022/01/06 09:21:08;;;;;;;89.22;29.85;;;0.90;99.90;;;;;;4982668;28;20032;-84
2022/01/06 09:23:36;;;;;;;80.80;30.15;;;1.00;99.90;;;;;;4998430;28;20033;-84
2022/01/06 09:26:02;;;;;;;95.00;30.23;;;0.90;99.90;;;;;;4982463;28;20034;-83
2022/01/06 09:28:27;;;;;;;82.53;29.05;;;1.00;99.90;;;;;;4998636;28;20037;-83
2022/01/06 09:30:55;;;;;;;77.65;28.13;;;1.20;99.90;;;;;;4982325;28;20025;-84
2022/01/06 09:33:22;;;;;;;64.07;24.42;;;1.20;99.90;;;;;;4982150;28;20062;-83
2022/01/06 09:35:49;;;;;;;63.88;26.08;;;1.20;99.90;;;;;;4998835;28;20042;-84
2022/01/06 09:38:16;;;;;;;65.65;24.30;;;1.20;99.90;;;;;;4998390;28;20092;-84
2022/01/06 09:40:43;;;;;;;71.13;25.33;;;1.20;99.90;;;;;;4998278;28;20469;-84
2022/01/06 09:43:37;;;;;;;66.78;23.73;;;1.20;99.90;;;;;;4981811;28;20113;-84
2022/01/06 09:46:08;;;;;;;71.63;22.50;;;1.20;99.90;;;;;;4997825;28;20034;-84
2022/01/06 09:48:39;;;;;;;55.40;20.55;;;1.20;99.90;;;;;;4981963;28;20030;-84
2022/01/06 09:51:05;;;;;;;54.33;18.77;;;1.20;99.90;;;;;;4997939;28;20484;-84
2022/01/06 09:54:07;;;;;;;59.10;19.60;;;1.30;99.90;;;;;;4981407;28;20026;-84
2022/01/06 09:56:32;;;;;;;60.67;20.33;;;1.50;99.90;;;;;;4997565;28;20042;-84
2022/01/06 09:58:58;;;;;;;59.80;19.02;;;1.50;99.90;;;;;;4981686;28;20681;-85
2022/01/06 10:01:24;;;;;;;48.95;16.35;;;1.40;99.90;;;;;;4997385;28;20029;-84
2022/01/06 10:03:50;;;;;;;59.35;17.50;;;1.40;99.90;;;;;;4980923;28;20041;-83
2022/01/06 10:06:22;;;;;;;42.70;15.48;;;1.40;99.90;;;;;;4980788;28;20065;-84
2022/01/06 10:08:56;;;;;;;37.40;12.20;;;1.40;99.90;;;;;;4997540;28;20433;-85
2022/01/06 10:11:25;;;;;;;43.53;12.95;;;1.40;99.90;;;;;;4998219;28;20890;-85
2022/01/06 10:14:19;;;;;;;39.13;10.80;;;1.40;99.90;;;;;;4998031;28;20576;-84
2022/01/06 10:16:49;;;;;;;34.53;10.73;;;1.20;99.90;;;;;;4998470;28;20084;-85
2022/01/06 10:19:15;;;;;;;31.13;10.90;;;1.20;99.90;;;;;;4981885;28;20026;-85
2022/01/06 10:21:47;;;;;;;32.40;10.25;;;1.30;99.90;;;;;;4984647;28;20045;-85
2022/01/06 10:24:22;;;;;;;33.22;9.32;;;1.40;99.90;;;;;;5000318;28;20096;-85
2022/01/06 10:26:54;;;;;;;30.10;10.45;;;1.50;99.90;;;;;;4995501;28;20084;-85
2022/01/06 10:29:20;;;;;;;29.92;9.30;;;1.50;99.90;;;;;;4983565;28;20436;-85
2022/01/06 10:32:05;;;;;;;31.30;9.13;;;1.50;99.90;;;;;;5003136;28;20021;-84
2022/01/06 10:34:32;;;;;;;28.45;7.88;;;1.60;99.90;;;;;;4985568;28;20120;-84
2022/01/06 10:36:58;;;;;;;33.60;8.45;;;1.70;99.90;;;;;;5002540;28;20034;-85
2022/01/06 10:39:24;;;;;;;67.60;20.50;;;1.70;99.90;;;;;;4983881;28;20026;-84
2022/01/06 10:41:51;;;;;;;49.75;16.52;;;1.70;99.90;;;;;;4999661;28;20525;-85
2022/01/06 10:44:17;;;;;;;38.53;9.68;;;1.70;99.90;;;;;;4984140;28;20121;-84
2022/01/06 10:46:44;;;;;;;32.42;10.90;;;1.70;99.90;;;;;;5002423;28;20061;-83
2022/01/06 10:49:19;;;;;;;37.03;11.25;;;1.80;99.90;;;;;;5000445;28;20145;-84
2022/01/06 10:51:48;;;;;;;41.40;11.70;;;1.70;99.90;;;;;;5001025;28;20030;-83
2022/01/06 10:54:24;;;;;;;23.00;8.00;;;1.80;99.90;;;;;;4984452;28;20022;-84
2022/01/06 10:56:57;;;;;;;27.23;7.20;;;1.70;99.90;;;;;;4984436;28;20033;-84
2022/01/06 10:59:25;;;;;;;35.38;8.80;;;1.70;99.90;;;;;;4985156;28;20116;-85
2022/01/06 11:01:50;;;;;;;27.10;8.93;;;1.70;99.90;;;;;;5002443;28;20026;-85
2022/01/06 11:04:16;;;;;;;30.33;7.07;;;1.70;99.90;;;;;;4985524;28;20049;-84
2022/01/06 11:06:43;;;;;;;58.67;11.75;;;1.70;99.90;;;;;;4983849;28;20034;-85
2022/01/06 11:09:10;;;;;;;23.45;7.63;;;1.90;99.90;;;;;;5001318;28;20481;-85
2022/01/06 11:12:26;;;;;;;22.35;7.35;;;1.90;99.90;;;;;;5004124;28;20087;-85
2022/01/06 11:14:30;;;;;;;28.98;7.55;;;2.00;99.90;;;;;;5000756;28;20366;-85
2022/01/06 11:16:56;;;;;;;31.45;8.13;;;2.10;99.90;;;;;;4981277;28;20042;-86
2022/01/06 11:19:24;;;;;;;24.88;8.45;;;2.20;99.90;;;;;;4980544;28;20029;-86
2022/01/06 11:21:51;;;;;;;26.42;7.63;;;2.30;99.90;;;;;;4996775;28;20150;-85
2022/01/06 11:24:23;;;;;;;25.80;8.38;;;2.30;99.90;;;;;;4980382;28;20029;-85
2022/01/06 11:27:10;;;;;;;30.75;7.18;;;2.30;99.90;;;;;;4980444;28;20030;-85
2022/01/06 11:29:40;;;;;;;32.13;8.57;;;2.30;99.90;;;;;;4996815;28;20034;-86
2022/01/06 11:32:26;;;;;;;31.45;10.43;;;2.40;99.90;;;;;;4977147;28;20060;-85
2022/01/06 11:35:11;;;;;;;27.52;6.80;;;2.40;99.90;;;;;;4980645;28;20041;-86
2022/01/06 11:37:46;;;;;;;34.78;8.55;;;2.50;99.90;;;;;;4996457;28;20045;-86
2022/01/06 11:40:14;;;;;;;30.13;7.93;;;2.50;99.90;;;;;;4996126;28;20179;-85
2022/01/06 11:43:08;;;;;;;29.73;11.52;;;2.40;99.90;;;;;;4980854;28;20037;-85
2022/01/06 11:45:34;;;;;;;26.80;8.27;;;2.50;99.90;;;;;;4998090;28;20041;-85
2022/01/06 11:48:07;;;;;;;24.73;7.72;;;2.50;99.90;;;;;;4981050;28;20033;-85
2022/01/06 11:50:39;;;;;;;35.65;10.30;;;2.40;99.90;;;;;;4980953;28;20030;-83
2022/01/06 11:53:05;;;;;;;28.23;7.63;;;2.30;99.90;;;;;;5015548;28;20034;-86
2022/01/06 11:55:34;;;;;;;30.55;7.30;;;2.20;99.90;;;;;;4981259;28;20421;-86
2022/01/06 11:58:22;;;;;;;47.78;11.75;;;2.10;99.90;;;;;;4981491;28;20037;-87
2022/01/06 12:01:02;;;;;;;47.83;10.43;;;2.10;99.90;;;;;;4981465;28;20559;-85
2022/01/06 12:03:36;;;;;;;36.42;10.48;;;2.00;99.90;;;;;;4997369;28;20034;-87
2022/01/06 12:06:03;;;;;;;32.28;9.27;;;2.10;99.90;;;;;;4998142;28;20394;-88
2022/01/06 12:08:40;;;;;;;34.55;11.25;;;2.10;99.90;;;;;;4998801;28;20034;-88
2022/01/06 12:11:39;;;;;;;27.23;8.27;;;2.40;99.90;;;;;;4982261;28;20045;-88
2022/01/06 12:14:04;;;;;;;20.75;9.10;;;2.50;99.90;;;;;;4938886;28;20061;-88
2022/01/06 12:16:34;;;;;;;32.03;12.07;;;2.60;99.90;;;;;;4980921;28;20033;-85
2022/01/06 12:19:02;;;;;;;36.90;7.95;;;2.70;99.90;;;;;;5014578;28;20058;-86
2022/01/06 12:21:28;;;;;;;27.60;9.68;;;2.90;99.90;;;;;;4996742;28;20080;-86
2022/01/06 12:24:06;;;;;;;31.42;8.40;;;3.00;99.90;;;;;;4981059;28;20121;-86
2022/01/06 12:26:33;;;;;;;42.17;13.88;;;3.00;99.90;;;;;;4984235;28;20029;-87
2022/01/06 12:28:59;;;;;;;32.75;8.98;;;2.70;99.90;;;;;;5019196;28;20026;-87
2022/01/06 12:31:29;;;;;;;29.23;7.93;;;2.50;99.90;;;;;;4985678;28;20432;-86
2022/01/06 12:33:59;;;;;;;39.92;9.80;;;2.40;99.90;;;;;;5001174;28;20068;-88
2022/01/06 12:36:31;;;;;;;36.05;10.68;;;2.10;99.90;;;;;;5001533;28;20081;-88
2022/01/06 12:38:57;;;;;;;28.60;8.80;;;1.90;99.90;;;;;;5000579;28;20921;-88
2022/01/06 12:41:29;;;;;;;26.30;9.73;;;1.70;99.90;;;;;;4984267;28;20030;-87
2022/01/06 12:43:56;;;;;;;44.63;12.50;;;1.60;99.90;;;;;;4999637;28;20038;-86
2022/01/06 12:46:28;;;;;;;34.40;8.38;;;1.60;99.90;;;;;;4984280;28;20641;-86
2022/01/06 12:48:54;;;;;;;35.88;13.48;;;1.60;99.90;;;;;;5000948;28;20033;-86
2022/01/06 12:51:25;;;;;;;35.22;12.43;;;1.50;99.90;;;;;;5000803;28;20026;-87
2022/01/06 12:53:58;;;;;;;;;;;1.40;99.90;;;;;;4983850;28;20037;-87